Time;durP1;ratioP1;P1;durP2;ratioP2;P2;SDS_P1;SDS_P2;PMS_P1;PMS_P2;Temp;Humidity;BMP_temperature;BMP_pressure;BME280_temperature;BME280_humidity;BME280_pressure;Samples;Min_cycle;Max_cycle;Signal;HPM_P1;HPM_P2
2021/05/30 00:00:37;;;;;;;9.98;8.27;;;;;;;;;;5054271;28;20033;-73
2021/05/30 00:03:03;;;;;;;11.55;9.40;;;;;;;;;;5053948;28;20398;-72
2021/05/30 00:05:29;;;;;;;12.85;9.98;;;;;;;;;;5053437;28;20033;-73
2021/05/30 00:07:56;;;;;;;14.35;10.07;;;;;;;;;;5053878;28;20032;-73
2021/05/30 00:10:21;;;;;;;11.55;9.18;;;;;;;;;;5054450;28;20501;-73
2021/05/30 00:12:47;;;;;;;15.85;10.32;;;;;;;;;;5054055;28;20029;-73
2021/05/30 00:15:13;;;;;;;10.93;8.70;;;;;;;;;;5054359;28;20120;-73
2021/05/30 00:17:39;;;;;;;10.30;8.35;;;;;;;;;;5052511;28;20039;-73
2021/05/30 00:20:06;;;;;;;11.35;7.35;;;;;;;;;;5053970;28;20029;-73
2021/05/30 00:22:32;;;;;;;8.68;6.65;;;;;;;;;;5053703;28;20132;-73
2021/05/30 00:24:59;;;;;;;14.07;8.90;;;;;;;;;;5053959;28;20119;-73
2021/05/30 00:27:24;;;;;;;11.57;9.73;;;;;;;;;;5053961;28;20085;-73
2021/05/30 00:29:49;;;;;;;12.93;10.10;;;;;;;;;;5053824;28;20037;-73
2021/05/30 00:32:15;;;;;;;10.07;7.93;;;;;;;;;;5053610;28;20047;-73
2021/05/30 00:34:40;;;;;;;12.77;9.45;;;;;;;;;;5053643;28;20116;-73
2021/05/30 00:37:05;;;;;;;12.45;8.65;;;;;;;;;;5053632;28;20089;-73
2021/05/30 00:39:31;;;;;;;12.77;8.90;;;;;;;;;;5052860;28;20033;-73
2021/05/30 00:41:56;;;;;;;15.65;9.55;;;;;;;;;;5053577;28;20041;-73
2021/05/30 00:44:31;;;;;;;10.98;8.77;;;;;;;;;;5053549;28;20460;-73
2021/05/30 00:46:58;;;;;;;26.75;9.02;;;;;;;;;;5052007;28;20135;-73
2021/05/30 00:49:25;;;;;;;11.95;8.90;;;;;;;;;;5053277;28;20040;-73
2021/05/30 00:51:51;;;;;;;12.40;9.20;;;;;;;;;;5053558;28;20036;-73
2021/05/30 00:54:17;;;;;;;16.60;10.00;;;;;;;;;;5053468;28;20124;-73
2021/05/30 00:56:43;;;;;;;12.10;7.63;;;;;;;;;;5053197;28;20037;-73
2021/05/30 00:59:10;;;;;;;12.75;7.75;;;;;;;;;;5053531;28;20048;-73
2021/05/30 01:01:37;;;;;;;10.68;7.95;;;;;;;;;;5053150;28;20059;-73
2021/05/30 01:04:03;;;;;;;15.95;9.13;;;;;;;;;;5053250;28;20040;-73
2021/05/30 01:06:29;;;;;;;12.45;9.90;;;;;;;;;;5052912;28;20041;-73
2021/05/30 01:08:55;;;;;;;16.75;10.30;;;;;;;;;;5051970;28;20120;-73
2021/05/30 01:11:22;;;;;;;14.02;9.18;;;;;;;;;;5053192;28;20454;-73
2021/05/30 01:13:54;;;;;;;10.50;8.10;;;;;;;;;;5053194;28;20033;-73
2021/05/30 01:16:21;;;;;;;10.60;8.30;;;;;;;;;;5052177;28;20131;-73
2021/05/30 01:18:48;;;;;;;11.63;8.40;;;;;;;;;;5052819;28;20040;-73
2021/05/30 01:21:14;;;;;;;9.38;8.38;;;;;;;;;;5053244;28;20076;-73
2021/05/30 01:23:40;;;;;;;13.63;10.77;;;;;;;;;;5052939;28;20069;-73
2021/05/30 01:26:05;;;;;;;11.57;8.90;;;;;;;;;;5053167;28;20021;-73
2021/05/30 01:28:31;;;;;;;11.82;9.80;;;;;;;;;;5053067;28;20039;-73
2021/05/30 01:30:56;;;;;;;12.65;8.93;;;;;;;;;;5052934;28;20037;-73
2021/05/30 01:33:22;;;;;;;11.10;9.23;;;;;;;;;;5052423;28;20059;-73
2021/05/30 01:35:47;;;;;;;11.43;8.73;;;;;;;;;;5050692;28;20029;-73
2021/05/30 01:38:13;;;;;;;15.48;8.80;;;;;;;;;;5052066;28;20459;-73
2021/05/30 01:40:40;;;;;;;13.90;9.27;;;;;;;;;;5052142;28;20037;-73
2021/05/30 01:43:05;;;;;;;20.38;9.93;;;;;;;;;;5052592;28;20053;-73
2021/05/30 01:45:32;;;;;;;14.88;10.13;;;;;;;;;;5052431;28;20472;-73
2021/05/30 01:47:58;;;;;;;13.95;9.98;;;;;;;;;;5052525;28;20045;-73
2021/05/30 01:50:26;;;;;;;14.88;10.52;;;;;;;;;;5052745;28;20045;-73
2021/05/30 01:52:52;;;;;;;13.13;9.75;;;;;;;;;;5052614;28;20033;-72
2021/05/30 01:55:29;;;;;;;13.57;9.68;;;;;;;;;;5052643;28;20041;-73
2021/05/30 01:57:56;;;;;;;17.13;8.20;;;;;;;;;;5050736;28;20109;-73
2021/05/30 02:00:22;;;;;;;12.55;9.35;;;;;;;;;;5052500;28;20490;-73
2021/05/30 02:02:51;;;;;;;11.43;8.40;;;;;;;;;;5052186;28;20083;-73
2021/05/30 02:05:17;;;;;;;11.88;9.30;;;;;;;;;;5051245;28;20041;-73
2021/05/30 02:07:43;;;;;;;15.77;10.02;;;;;;;;;;5052711;28;20032;-73
2021/05/30 02:10:12;;;;;;;17.98;11.18;;;;;;;;;;5052202;28;20087;-73
2021/05/30 02:12:38;;;;;;;18.73;10.88;;;;;;;;;;5052255;28;20094;-73
2021/05/30 02:15:05;;;;;;;20.42;12.25;;;;;;;;;;5051736;28;20086;-73
2021/05/30 02:17:33;;;;;;;16.80;11.20;;;;;;;;;;5051843;28;20037;-73
2021/05/30 02:19:59;;;;;;;21.63;12.50;;;;;;;;;;5052360;28;20116;-73
2021/05/30 02:22:24;;;;;;;18.05;12.15;;;;;;;;;;5051531;28;20119;-73
2021/05/30 02:24:50;;;;;;;19.40;12.80;;;;;;;;;;5052478;28;20383;-73
2021/05/30 02:27:15;;;;;;;19.98;13.65;;;;;;;;;;5052922;28;20112;-73
2021/05/30 02:29:43;;;;;;;21.85;13.55;;;;;;;;;;5056084;28;20045;-73
2021/05/30 02:32:11;;;;;;;22.02;13.45;;;;;;;;;;5056078;28;20075;-73
2021/05/30 02:34:38;;;;;;;28.35;15.60;;;;;;;;;;5054873;28;20028;-73
2021/05/30 02:37:05;;;;;;;22.30;16.00;;;;;;;;;;5056080;28;20028;-73
2021/05/30 02:39:31;;;;;;;26.25;15.93;;;;;;;;;;5055298;28;20040;-73
2021/05/30 02:41:56;;;;;;;18.95;14.48;;;;;;;;;;5055658;28;20568;-73
2021/05/30 02:44:22;;;;;;;27.27;14.55;;;;;;;;;;5054852;28;20056;-73
2021/05/30 02:46:47;;;;;;;44.88;14.90;;;;;;;;;;5055932;28;20036;-73
2021/05/30 02:49:13;;;;;;;26.42;15.70;;;;;;;;;;5055327;28;20048;-73
2021/05/30 02:51:38;;;;;;;32.03;15.90;;;;;;;;;;5056209;28;20047;-73
2021/05/30 02:54:04;;;;;;;25.67;15.85;;;;;;;;;;5055908;28;20078;-73
2021/05/30 02:56:29;;;;;;;35.55;16.75;;;;;;;;;;5055582;28;20057;-74
2021/05/30 02:58:54;;;;;;;22.77;16.45;;;;;;;;;;5055425;28;20471;-73
2021/05/30 03:01:20;;;;;;;34.47;17.45;;;;;;;;;;5055816;28;20033;-74
2021/05/30 03:03:47;;;;;;;23.63;15.70;;;;;;;;;;5055612;28;20057;-73
2021/05/30 03:06:13;;;;;;;36.63;16.52;;;;;;;;;;5054687;28;20041;-74
2021/05/30 03:08:38;;;;;;;24.25;16.88;;;;;;;;;;5055719;28;20482;-73
2021/05/30 03:11:04;;;;;;;27.85;17.33;;;;;;;;;;5055287;28;20033;-74
2021/05/30 03:13:29;;;;;;;23.85;16.75;;;;;;;;;;5055469;28;20560;-74
2021/05/30 03:15:55;;;;;;;29.63;16.67;;;;;;;;;;5055750;28;20040;-73
2021/05/30 03:18:20;;;;;;;27.55;16.92;;;;;;;;;;5054883;28;20498;-73
2021/05/30 03:20:46;;;;;;;24.23;15.68;;;;;;;;;;5055589;28;20395;-73
2021/05/30 03:23:11;;;;;;;24.67;15.05;;;;;;;;;;5055130;28;20036;-73
2021/05/30 03:25:38;;;;;;;26.27;17.35;;;;;;;;;;5054006;28;20033;-73
2021/05/30 03:28:04;;;;;;;21.98;15.52;;;;;;;;;;5054962;28;20043;-73
2021/05/30 03:30:30;;;;;;;22.30;16.10;;;;;;;;;;5053758;28;20418;-73
2021/05/30 03:32:55;;;;;;;21.77;15.63;;;;;;;;;;5053927;28;20043;-74
2021/05/30 03:35:20;;;;;;;21.25;16.27;;;;;;;;;;5055241;28;20029;-73
2021/05/30 03:37:46;;;;;;;20.83;14.98;;;;;;;;;;5054917;28;20037;-73
2021/05/30 03:42:59;;;;;;;;;;;;;;;;;;5047241;28;20434;-73
2021/05/30 03:45:24;;;;;;;19.23;14.47;;;;;;;;;;5054964;28;19912;-73
2021/05/30 03:47:51;;;;;;;17.98;13.68;;;;;;;;;;5054752;28;20352;-73
2021/05/30 03:50:16;;;;;;;26.85;14.25;;;;;;;;;;5053772;28;20037;-73
2021/05/30 03:52:42;;;;;;;44.05;14.05;;;;;;;;;;5054564;28;20044;-73
2021/05/30 03:55:10;;;;;;;17.30;14.00;;;;;;;;;;5053344;28;20144;-73
2021/05/30 03:57:36;;;;;;;32.65;14.73;;;;;;;;;;5054443;28;20170;-73
2021/05/30 04:00:14;;;;;;;19.60;13.88;;;;;;;;;;5054705;28;20029;-73
2021/05/30 04:02:39;;;;;;;54.17;15.35;;;;;;;;;;5054294;28;20433;-73
2021/05/30 04:05:05;;;;;;;40.53;15.00;;;;;;;;;;5054598;28;20107;-73
2021/05/30 04:07:33;;;;;;;60.78;14.63;;;;;;;;;;5054292;28;20029;-73
2021/05/30 04:10:06;;;;;;;19.98;13.70;;;;;;;;;;5054381;28;20040;-73
2021/05/30 04:12:32;;;;;;;18.05;14.23;;;;;;;;;;5054552;28;20449;-73
2021/05/30 04:14:58;;;;;;;16.02;12.00;;;;;;;;;;5054595;28;20028;-73
2021/05/30 04:17:23;;;;;;;16.98;14.10;;;;;;;;;;5052528;28;20414;-73
2021/05/30 04:19:49;;;;;;;28.75;12.50;;;;;;;;;;5054344;28;20061;-73
2021/05/30 04:22:14;;;;;;;28.40;13.98;;;;;;;;;;5036293;28;20554;-73
2021/05/30 04:24:39;;;;;;;66.28;13.98;;;;;;;;;;5054184;28;20060;-73
2021/05/30 04:27:05;;;;;;;17.80;13.82;;;;;;;;;;5053950;28;20056;-73
2021/05/30 04:29:31;;;;;;;25.20;12.60;;;;;;;;;;5054342;28;20048;-73
2021/05/30 04:31:58;;;;;;;16.50;12.90;;;;;;;;;;5053922;28;20037;-72
2021/05/30 04:34:24;;;;;;;20.52;13.27;;;;;;;;;;5053417;28;20501;-73
2021/05/30 04:36:49;;;;;;;16.55;12.77;;;;;;;;;;5052434;28;20033;-73
2021/05/30 04:39:14;;;;;;;14.48;11.80;;;;;;;;;;5053959;28;20433;-73
2021/05/30 04:41:40;;;;;;;15.02;12.40;;;;;;;;;;5053824;28;20452;-73
2021/05/30 04:44:05;;;;;;;14.85;11.88;;;;;;;;;;5052493;28;20044;-73
2021/05/30 04:46:31;;;;;;;18.00;10.68;;;;;;;;;;5053422;28;20040;-74
2021/05/30 04:48:56;;;;;;;16.67;11.65;;;;;;;;;;5053280;28;20041;-74
2021/05/30 04:51:21;;;;;;;50.13;11.63;;;;;;;;;;5053162;28;20067;-74
2021/05/30 04:53:47;;;;;;;13.27;11.10;;;;;;;;;;5053290;28;20068;-74
2021/05/30 04:56:20;;;;;;;18.45;10.93;;;;;;;;;;5053564;28;20454;-74
2021/05/30 04:58:45;;;;;;;13.63;10.20;;;;;;;;;;5053389;28;20509;-73
2021/05/30 05:01:11;;;;;;;12.13;10.50;;;;;;;;;;5053489;28;20037;-74
2021/05/30 05:03:36;;;;;;;13.30;11.00;;;;;;;;;;5052963;28;20044;-73
2021/05/30 05:06:02;;;;;;;13.70;10.57;;;;;;;;;;5053248;28;20040;-73
2021/05/30 05:08:27;;;;;;;14.45;10.35;;;;;;;;;;5053116;28;20025;-72
2021/05/30 05:10:53;;;;;;;14.18;10.13;;;;;;;;;;5053397;28;20112;-72
2021/05/30 05:13:19;;;;;;;11.50;9.40;;;;;;;;;;5053103;28;20391;-74
2021/05/30 05:15:49;;;;;;;10.70;8.50;;;;;;;;;;5053235;28;20090;-74
2021/05/30 05:18:17;;;;;;;9.70;8.02;;;;;;;;;;5052562;28;20029;-73
2021/05/30 05:20:43;;;;;;;8.48;7.57;;;;;;;;;;5052964;28;20120;-73
2021/05/30 05:23:13;;;;;;;7.85;6.90;;;;;;;;;;5051910;28;20044;-73
2021/05/30 05:25:39;;;;;;;9.57;7.97;;;;;;;;;;5051638;28;20056;-73
2021/05/30 05:28:05;;;;;;;8.38;6.75;;;;;;;;;;5052913;28;20352;-71
2021/05/30 05:30:32;;;;;;;7.13;6.35;;;;;;;;;;5052956;28;20391;-71
2021/05/30 05:32:59;;;;;;;8.43;7.10;;;;;;;;;;5052557;28;20124;-71
2021/05/30 05:35:25;;;;;;;8.00;6.53;;;;;;;;;;5052907;28;20036;-71
2021/05/30 05:37:57;;;;;;;10.05;7.63;;;;;;;;;;5052964;28;20090;-73
2021/05/30 05:40:24;;;;;;;8.25;7.13;;;;;;;;;;5053123;28;20099;-73
2021/05/30 05:42:51;;;;;;;8.80;7.32;;;;;;;;;;5052820;28;20501;-73
2021/05/30 05:45:17;;;;;;;7.95;7.15;;;;;;;;;;5052630;28;20119;-73
2021/05/30 05:47:43;;;;;;;7.43;6.55;;;;;;;;;;5052646;28;20128;-73
2021/05/30 05:50:14;;;;;;;8.32;6.53;;;;;;;;;;5051135;28;20037;-73
2021/05/30 05:52:40;;;;;;;26.88;8.15;;;;;;;;;;5051478;28;20040;-73
2021/05/30 05:55:07;;;;;;;8.55;7.40;;;;;;;;;;5052793;28;20029;-72
2021/05/30 05:57:37;;;;;;;8.63;7.40;;;;;;;;;;5052633;28;20037;-71
2021/05/30 06:00:08;;;;;;;8.20;7.15;;;;;;;;;;5052766;28;20177;-72
2021/05/30 06:02:35;;;;;;;8.38;6.75;;;;;;;;;;5053648;28;20033;-71
2021/05/30 06:05:01;;;;;;;8.02;7.07;;;;;;;;;;5056826;28;20033;-72
2021/05/30 06:07:27;;;;;;;8.40;7.20;;;;;;;;;;5055445;28;20028;-73
2021/05/30 06:09:53;;;;;;;8.35;7.15;;;;;;;;;;5056409;28;20041;-73
2021/05/30 06:12:19;;;;;;;9.20;6.88;;;;;;;;;;5056617;28;20029;-72
2021/05/30 06:14:45;;;;;;;10.30;7.55;;;;;;;;;;5055070;28;20398;-73
2021/05/30 06:17:11;;;;;;;7.28;6.50;;;;;;;;;;5056507;28;20367;-73
2021/05/30 06:19:37;;;;;;;7.68;6.85;;;;;;;;;;5056290;28;20040;-73
2021/05/30 06:22:04;;;;;;;9.80;6.55;;;;;;;;;;5056851;28;20045;-71
2021/05/30 06:24:30;;;;;;;6.82;6.13;;;;;;;;;;5056304;28;20044;-71
2021/05/30 06:26:57;;;;;;;7.50;6.70;;;;;;;;;;5056075;28;20037;-71
2021/05/30 06:29:22;;;;;;;8.60;6.45;;;;;;;;;;5056391;28;20550;-71
2021/05/30 06:31:48;;;;;;;9.85;6.60;;;;;;;;;;5055916;28;20047;-73
2021/05/30 06:34:15;;;;;;;8.77;7.00;;;;;;;;;;5055731;28;20041;-71
2021/05/30 06:36:46;;;;;;;7.22;6.50;;;;;;;;;;5054918;28;20108;-71
2021/05/30 06:39:12;;;;;;;7.10;6.40;;;;;;;;;;5055841;28;20048;-73
2021/05/30 06:41:37;;;;;;;8.13;7.13;;;;;;;;;;5055723;28;20040;-72
2021/05/30 06:44:05;;;;;;;7.75;6.82;;;;;;;;;;5055997;28;20465;-72
2021/05/30 06:46:31;;;;;;;6.72;6.03;;;;;;;;;;5055736;28;20489;-72
2021/05/30 06:48:57;;;;;;;10.80;6.65;;;;;;;;;;5055806;28;20032;-73
2021/05/30 06:51:23;;;;;;;6.63;5.68;;;;;;;;;;5055871;28;20532;-73
2021/05/30 06:53:50;;;;;;;6.35;5.65;;;;;;;;;;5054050;28;20486;-73
2021/05/30 06:56:16;;;;;;;6.78;5.95;;;;;;;;;;5055480;28;20040;-73
2021/05/30 06:58:43;;;;;;;6.53;4.68;;;;;;;;;;5055728;28;20403;-71
2021/05/30 07:01:09;;;;;;;9.73;5.65;;;;;;;;;;5055319;28;20056;-71
2021/05/30 07:03:34;;;;;;;6.30;5.00;;;;;;;;;;5055108;28;20067;-71
2021/05/30 07:06:00;;;;;;;5.72;4.50;;;;;;;;;;5054156;28;20036;-71
2021/05/30 07:08:26;;;;;;;6.45;4.53;;;;;;;;;;5054999;28;20037;-71
2021/05/30 07:10:53;;;;;;;5.13;4.18;;;;;;;;;;5055271;28;20029;-71
2021/05/30 07:13:19;;;;;;;5.28;4.18;;;;;;;;;;5045231;28;20487;-72
2021/05/30 07:15:44;;;;;;;5.03;3.97;;;;;;;;;;5044394;28;20035;-72
2021/05/30 07:18:10;;;;;;;5.07;4.40;;;;;;;;;;5048945;28;20155;-71
2021/05/30 07:20:35;;;;;;;5.65;5.00;;;;;;;;;;5055019;28;20036;-71
2021/05/30 07:23:01;;;;;;;5.13;4.45;;;;;;;;;;5054902;28;20086;-71
2021/05/30 07:25:26;;;;;;;5.82;4.47;;;;;;;;;;5054479;28;20029;-71
2021/05/30 07:27:51;;;;;;;4.57;4.18;;;;;;;;;;5053892;28;20048;-71
2021/05/30 07:30:18;;;;;;;5.95;4.38;;;;;;;;;;5053873;28;20090;-71
2021/05/30 07:32:44;;;;;;;4.93;4.28;;;;;;;;;;5054692;28;20046;-70
2021/05/30 07:35:10;;;;;;;3.97;3.58;;;;;;;;;;5053532;28;20554;-71
2021/05/30 07:37:35;;;;;;;5.03;4.05;;;;;;;;;;5053496;28;20037;-71
2021/05/30 07:40:00;;;;;;;6.90;4.60;;;;;;;;;;5053680;28;20033;-70
2021/05/30 07:42:26;;;;;;;4.82;4.05;;;;;;;;;;5054150;28;20066;-70
2021/05/30 07:44:51;;;;;;;5.75;4.43;;;;;;;;;;5054863;28;20502;-70
2021/05/30 07:47:17;;;;;;;4.53;4.13;;;;;;;;;;5054445;28;20090;-70
2021/05/30 07:49:42;;;;;;;5.63;4.20;;;;;;;;;;5054419;28;20048;-70
2021/05/30 07:52:08;;;;;;;4.70;3.92;;;;;;;;;;5054546;28;20029;-71
2021/05/30 07:54:33;;;;;;;7.70;4.88;;;;;;;;;;5054348;28;20036;-71
2021/05/30 07:56:58;;;;;;;8.18;4.63;;;;;;;;;;5049851;28;20021;-70
2021/05/30 07:59:24;;;;;;;8.30;4.82;;;;;;;;;;5053147;28;20479;-72
2021/05/30 08:01:51;;;;;;;6.65;4.47;;;;;;;;;;5054546;28;20068;-71
2021/05/30 08:04:16;;;;;;;6.28;4.20;;;;;;;;;;5054059;28;20028;-72
2021/05/30 08:06:42;;;;;;;5.57;3.90;;;;;;;;;;5054159;28;20344;-72
2021/05/30 08:09:07;;;;;;;7.03;4.43;;;;;;;;;;5054068;28;20037;-72
2021/05/30 08:11:32;;;;;;;9.50;5.18;;;;;;;;;;5053791;28;20051;-71
2021/05/30 08:13:58;;;;;;;6.63;3.92;;;;;;;;;;5053886;28;20112;-73
2021/05/30 08:16:24;;;;;;;8.98;4.30;;;;;;;;;;5054111;28;20039;-72
2021/05/30 08:18:49;;;;;;;9.75;4.40;;;;;;;;;;5053921;28;20383;-74
2021/05/30 08:21:15;;;;;;;5.28;3.95;;;;;;;;;;5052819;28;20128;-74
2021/05/30 08:23:42;;;;;;;8.35;4.13;;;;;;;;;;5053910;28;20048;-74
2021/05/30 08:26:08;;;;;;;7.68;4.15;;;;;;;;;;5053389;28;20109;-75
2021/05/30 08:28:34;;;;;;;7.18;4.07;;;;;;;;;;5053784;28;20542;-75
2021/05/30 08:31:00;;;;;;;7.25;4.15;;;;;;;;;;5053928;28;20029;-75
2021/05/30 08:33:26;;;;;;;5.90;4.00;;;;;;;;;;5053369;28;20474;-76
2021/05/30 08:35:52;;;;;;;6.70;3.78;;;;;;;;;;5053720;28;20499;-75
2021/05/30 08:38:17;;;;;;;8.20;4.28;;;;;;;;;;5053098;28;20119;-74
2021/05/30 08:40:42;;;;;;;9.07;4.95;;;;;;;;;;5047742;28;20068;-73
2021/05/30 08:43:11;;;;;;;6.55;4.47;;;;;;;;;;5042859;28;20083;-74
2021/05/30 08:45:36;;;;;;;8.20;4.20;;;;;;;;;;5044147;28;20029;-74
2021/05/30 08:48:02;;;;;;;6.97;4.15;;;;;;;;;;5042445;28;20037;-74
2021/05/30 08:50:28;;;;;;;6.97;3.92;;;;;;;;;;5044807;28;20041;-75
2021/05/30 08:52:53;;;;;;;9.25;4.07;;;;;;;;;;5043360;28;20116;-76
2021/05/30 08:55:19;;;;;;;9.10;4.07;;;;;;;;;;5037887;28;20465;-76
2021/05/30 08:57:45;;;;;;;6.55;3.88;;;;;;;;;;5039698;28;20036;-76
2021/05/30 09:00:12;;;;;;;7.63;4.15;;;;;;;;;;5040488;28;20387;-76
2021/05/30 09:02:38;;;;;;;7.72;3.65;;;;;;;;;;5042687;28;20032;-75
2021/05/30 09:05:07;;;;;;;8.25;4.68;;;;;;;;;;5042329;28;20037;-76
2021/05/30 09:07:46;;;;;;;5.50;3.08;;;;;;;;;;5040707;28;20040;-75
2021/05/30 09:10:22;;;;;;;4.68;3.30;;;;;;;;;;5042267;28;20104;-76
2021/05/30 09:13:14;;;;;;;5.00;3.05;;;;;;;;;;5046078;28;20035;-76
2021/05/30 09:16:07;;;;;;;5.75;3.35;;;;;;;;;;5045953;28;20028;-75
2021/05/30 09:18:35;;;;;;;5.32;3.38;;;;;;;;;;5046594;28;20021;-75
2021/05/30 09:21:08;;;;;;;6.65;3.03;;;;;;;;;;5046228;28;20033;-75
2021/05/30 09:23:36;;;;;;;6.95;3.58;;;;;;;;;;5044010;28;20059;-75
2021/05/30 09:26:16;;;;;;;5.85;3.03;;;;;;;;;;5035195;28;20096;-75
2021/05/30 09:29:05;;;;;;;4.57;2.88;;;;;;;;;;5038452;28;20041;-76
2021/05/30 09:31:32;;;;;;;3.75;2.63;;;;;;;;;;5043111;28;20058;-78
2021/05/30 09:33:58;;;;;;;5.20;2.70;;;;;;;;;;5045920;28;20376;-75
2021/05/30 09:36:23;;;;;;;6.65;2.88;;;;;;;;;;5041400;28;20108;-75
2021/05/30 09:39:01;;;;;;;5.05;2.80;;;;;;;;;;5045612;28;20037;-75
2021/05/30 09:41:26;;;;;;;6.60;2.97;;;;;;;;;;5046154;28;20114;-75
2021/05/30 09:43:54;;;;;;;4.25;2.78;;;;;;;;;;5046350;28;20468;-76
2021/05/30 09:46:24;;;;;;;7.32;3.00;;;;;;;;;;5044570;28;20041;-75
2021/05/30 09:48:49;;;;;;;6.80;2.78;;;;;;;;;;5045793;28;20521;-75
2021/05/30 09:51:29;;;;;;;5.22;2.28;;;;;;;;;;5046152;28;20056;-75
2021/05/30 09:54:01;;;;;;;4.45;2.55;;;;;;;;;;5046858;28;20064;-75
2021/05/30 09:56:36;;;;;;;4.72;2.47;;;;;;;;;;5045593;28;20033;-76
2021/05/30 09:59:04;;;;;;;3.53;2.35;;;;;;;;;;5044191;28;20060;-76
2021/05/30 10:02:02;;;;;;;5.18;2.38;;;;;;;;;;5046255;28;20039;-75
2021/05/30 10:04:30;;;;;;;6.53;2.33;;;;;;;;;;5036342;28;20102;-76
2021/05/30 10:06:57;;;;;;;7.75;5.30;;;;;;;;;;5036332;28;20041;-75
2021/05/30 10:09:24;;;;;;;7.50;2.90;;;;;;;;;;5037238;28;20073;-75
2021/05/30 10:11:50;;;;;;;3.38;2.50;;;;;;;;;;5056376;28;20479;-75
2021/05/30 10:14:16;;;;;;;4.03;1.80;;;;;;;;;;5056084;28;20040;-75
2021/05/30 10:16:42;;;;;;;3.90;2.33;;;;;;;;;;5056313;28;20451;-74
2021/05/30 10:19:12;;;;;;;4.10;2.38;;;;;;;;;;5055033;28;20039;-75
2021/05/30 10:21:44;;;;;;;3.55;2.25;;;;;;;;;;5057326;28;20043;-76
2021/05/30 10:24:11;;;;;;;2.38;1.90;;;;;;;;;;5055461;28;20036;-74
2021/05/30 10:26:36;;;;;;;3.92;2.08;;;;;;;;;;5056102;28;20083;-76
2021/05/30 10:29:22;;;;;;;2.95;1.90;;;;;;;;;;5056495;28;20036;-75
2021/05/30 10:31:48;;;;;;;4.05;2.05;;;;;;;;;;5057641;28;20087;-75
2021/05/30 10:34:17;;;;;;;4.45;2.20;;;;;;;;;;5056915;28;20044;-75
2021/05/30 10:36:42;;;;;;;5.43;2.35;;;;;;;;;;5056343;28;20447;-74
2021/05/30 10:39:34;;;;;;;3.72;2.13;;;;;;;;;;5057574;28;20025;-75
2021/05/30 10:42:10;;;;;;;3.92;2.17;;;;;;;;;;5059878;28;20056;-77
2021/05/30 10:44:52;;;;;;;6.47;1.70;;;;;;;;;;5060608;28;20037;-79
2021/05/30 10:47:41;;;;;;;5.50;2.15;;;;;;;;;;5062557;28;20050;-79
2021/05/30 10:50:09;;;;;;;3.72;1.60;;;;;;;;;;5063029;28;20490;-77
2021/05/30 10:52:37;;;;;;;2.85;1.58;;;;;;;;;;5062493;28;20497;-75
2021/05/30 10:55:57;;;;;;;4.20;1.63;;;;;;;;;;5062841;28;20040;-79
2021/05/30 11:02:13;;;;;;;6.07;2.25;;;;;;;;;;5045540;28;20084;-75
2021/05/30 11:04:39;;;;;;;3.08;1.95;;;;;;;;;;5047955;28;20436;-74
2021/05/30 11:07:29;;;;;;;3.53;2.30;;;;;;;;;;5049422;28;20053;-75
2021/05/30 11:09:58;;;;;;;6.50;2.10;;;;;;;;;;5057706;28;20478;-75
2021/05/30 11:12:26;;;;;;;3.25;1.23;;;;;;;;;;5058025;28;20473;-76
2021/05/30 11:15:11;;;;;;;3.80;1.55;;;;;;;;;;5058579;28;20029;-76
2021/05/30 11:17:40;;;;;;;7.03;1.73;;;;;;;;;;5058759;28;20447;-76
2021/05/30 11:20:15;;;;;;;3.90;1.30;;;;;;;;;;5041972;28;20126;-75
2021/05/30 11:22:47;;;;;;;4.72;1.67;;;;;;;;;;5040469;28;20512;-77
2021/05/30 11:25:33;;;;;;;3.15;1.40;;;;;;;;;;5042943;28;20048;-76
2021/05/30 11:28:01;;;;;;;4.18;1.83;;;;;;;;;;5042177;28;20100;-74
2021/05/30 11:30:47;;;;;;;2.20;1.52;;;;;;;;;;5044904;28;20037;-77
2021/05/30 11:33:30;;;;;;;2.42;1.20;;;;;;;;;;5065125;28;20407;-75
2021/05/30 11:36:04;;;;;;;3.63;1.60;;;;;;;;;;5063138;28;20029;-76
2021/05/30 11:38:33;;;;;;;8.15;2.13;;;;;;;;;;5063874;28;20032;-76
2021/05/30 11:41:10;;;;;;;5.85;1.55;;;;;;;;;;5042233;28;20117;-76
2021/05/30 11:43:35;;;;;;;6.22;1.70;;;;;;;;;;5041994;28;20049;-76
2021/05/30 11:46:11;;;;;;;3.25;1.60;;;;;;;;;;5042449;28;20479;-76
2021/05/30 11:48:37;;;;;;;5.15;1.83;;;;;;;;;;5042642;28;20033;-76
2021/05/30 11:51:02;;;;;;;4.72;1.80;;;;;;;;;;5042064;28;20037;-75
2021/05/30 11:53:30;;;;;;;3.80;1.85;;;;;;;;;;5043833;28;20113;-76
2021/05/30 11:55:57;;;;;;;2.85;1.70;;;;;;;;;;5026010;28;20033;-76
2021/05/30 11:58:23;;;;;;;5.85;1.50;;;;;;;;;;5045235;28;20037;-75
2021/05/30 12:00:54;;;;;;;3.00;1.83;;;;;;;;;;5052049;28;20179;-75
2021/05/30 12:03:20;;;;;;;4.00;1.70;;;;;;;;;;5050495;28;20060;-76
2021/05/30 12:05:45;;;;;;;3.35;1.60;;;;;;;;;;5052707;28;20025;-76
2021/05/30 12:08:16;;;;;;;2.58;1.52;;;;;;;;;;5050556;28;20034;-75
2021/05/30 12:10:52;;;;;;;3.60;1.67;;;;;;;;;;5051616;28;20600;-75
2021/05/30 12:13:25;;;;;;;3.17;1.58;;;;;;;;;;5047519;28;20043;-76
2021/05/30 12:15:50;;;;;;;3.60;1.67;;;;;;;;;;5044927;28;20069;-75
2021/05/30 12:18:15;;;;;;;6.63;2.10;;;;;;;;;;5045864;28;20442;-75
2021/05/30 12:20:43;;;;;;;4.25;1.80;;;;;;;;;;5055330;28;20119;-74
2021/05/30 12:23:13;;;;;;;4.88;1.77;;;;;;;;;;5054573;28;20047;-74
2021/05/30 12:25:49;;;;;;;3.55;1.70;;;;;;;;;;5054143;28;20064;-75
2021/05/30 12:28:15;;;;;;;4.63;1.90;;;;;;;;;;5054193;28;20075;-74
2021/05/30 12:30:41;;;;;;;3.65;2.08;;;;;;;;;;5054157;28;20429;-77
2021/05/30 12:33:06;;;;;;;8.02;2.40;;;;;;;;;;5054063;28;20052;-73
2021/05/30 12:35:52;;;;;;;4.55;1.90;;;;;;;;;;5053809;28;20033;-72
2021/05/30 12:38:20;;;;;;;3.00;1.92;;;;;;;;;;5053977;28;20037;-73
2021/05/30 12:40:47;;;;;;;4.93;2.00;;;;;;;;;;5052513;28;20040;-73
2021/05/30 12:43:14;;;;;;;3.50;2.00;;;;;;;;;;5052456;28;20514;-74
2021/05/30 12:46:03;;;;;;;4.00;2.30;;;;;;;;;;5053750;28;20041;-73
2021/05/30 12:48:47;;;;;;;3.03;1.65;;;;;;;;;;5053991;28;20025;-73
2021/05/30 12:51:25;;;;;;;3.47;1.98;;;;;;;;;;5053682;28;20407;-73
2021/05/30 12:53:51;;;;;;;7.47;1.90;;;;;;;;;;5053730;28;20033;-73
2021/05/30 12:56:25;;;;;;;2.60;1.85;;;;;;;;;;5053034;28;20033;-73
2021/05/30 12:59:10;;;;;;;3.08;1.63;;;;;;;;;;5053345;28;20112;-72
2021/05/30 13:01:37;;;;;;;6.38;1.95;;;;;;;;;;5053710;28;20421;-73
2021/05/30 13:04:19;;;;;;;3.83;1.60;;;;;;;;;;5053459;28;20352;-73
2021/05/30 13:06:53;;;;;;;3.25;1.70;;;;;;;;;;5053337;28;20530;-72
2021/05/30 13:09:19;;;;;;;3.03;1.90;;;;;;;;;;5052239;28;20032;-72
2021/05/30 13:11:45;;;;;;;4.63;1.88;;;;;;;;;;5052196;28;20043;-72
2021/05/30 13:14:26;;;;;;;4.28;2.10;;;;;;;;;;5051962;28;20040;-72
2021/05/30 13:16:51;;;;;;;3.10;1.85;;;;;;;;;;5052731;28;20077;-72
2021/05/30 13:19:17;;;;;;;3.20;1.60;;;;;;;;;;5053080;28;20056;-72
2021/05/30 13:21:42;;;;;;;4.65;1.90;;;;;;;;;;5053070;28;20490;-76
2021/05/30 13:24:18;;;;;;;10.20;2.13;;;;;;;;;;5052986;28;20467;-76
2021/05/30 13:26:45;;;;;;;3.97;1.90;;;;;;;;;;5051967;28;20126;-76
2021/05/30 13:29:22;;;;;;;3.05;1.85;;;;;;;;;;5053160;28;20040;-76
2021/05/30 13:31:50;;;;;;;9.32;1.92;;;;;;;;;;5051622;28;20037;-76
2021/05/30 13:34:15;;;;;;;5.10;1.90;;;;;;;;;;5052042;28;20044;-75
2021/05/30 13:36:40;;;;;;;5.00;1.70;;;;;;;;;;5053464;28;20041;-75
2021/05/30 13:39:11;;;;;;;3.10;1.80;;;;;;;;;;5053986;28;20037;-77
2021/05/30 13:41:37;;;;;;;6.05;2.78;;;;;;;;;;5033783;28;20046;-77
2021/05/30 13:44:04;;;;;;;3.17;1.80;;;;;;;;;;5033987;28;20106;-77
2021/05/30 13:46:29;;;;;;;2.78;1.77;;;;;;;;;;5033379;28;20061;-77
2021/05/30 13:48:56;;;;;;;4.45;2.08;;;;;;;;;;5033279;28;20076;-77
2021/05/30 13:51:23;;;;;;;5.75;1.80;;;;;;;;;;5033899;28;20048;-77
2021/05/30 13:53:51;;;;;;;3.22;1.80;;;;;;;;;;5034558;28;20041;-77
2021/05/30 13:56:17;;;;;;;3.25;2.10;;;;;;;;;;5034686;28;20050;-77
2021/05/30 13:58:44;;;;;;;5.18;2.22;;;;;;;;;;5032351;28;20069;-77
2021/05/30 14:01:11;;;;;;;3.00;1.80;;;;;;;;;;5033303;28;20034;-77
2021/05/30 14:03:38;;;;;;;4.80;2.00;;;;;;;;;;5033196;28;20076;-77
2021/05/30 14:06:05;;;;;;;11.23;3.30;;;;;;;;;;5032990;28;20384;-78
2021/05/30 14:08:31;;;;;;;5.82;1.73;;;;;;;;;;5033470;28;20040;-77
2021/05/30 14:10:56;;;;;;;6.15;1.80;;;;;;;;;;5047491;28;20041;-77
2021/05/30 14:13:22;;;;;;;5.13;2.45;;;;;;;;;;5051560;28;20127;-77
2021/05/30 14:15:47;;;;;;;3.13;1.80;;;;;;;;;;5051411;28;20128;-77
2021/05/30 14:18:13;;;;;;;7.00;1.80;;;;;;;;;;5052770;28;20060;-77
2021/05/30 14:20:38;;;;;;;4.72;1.67;;;;;;;;;;5052772;28;20467;-77
2021/05/30 14:23:03;;;;;;;3.58;1.92;;;;;;;;;;5053129;28;20505;-77
2021/05/30 14:25:30;;;;;;;5.10;1.92;;;;;;;;;;5056350;28;20044;-77
2021/05/30 14:28:00;;;;;;;4.88;1.85;;;;;;;;;;5056503;28;20037;-77
2021/05/30 14:30:26;;;;;;;2.22;1.50;;;;;;;;;;5056416;28;20401;-77
2021/05/30 14:32:52;;;;;;;5.80;3.58;;;;;;;;;;5056519;28;20443;-77
2021/05/30 14:35:17;;;;;;;9.50;2.40;;;;;;;;;;5055259;28;20092;-77
2021/05/30 14:37:43;;;;;;;2.20;1.88;;;;;;;;;;5054857;28;20040;-77
2021/05/30 14:40:09;;;;;;;5.55;2.00;;;;;;;;;;5055878;28;20116;-77
2021/05/30 14:42:35;;;;;;;3.08;2.15;;;;;;;;;;5055759;28;20059;-77
2021/05/30 14:45:00;;;;;;;5.50;1.90;;;;;;;;;;5055072;28;20465;-77
2021/05/30 14:47:25;;;;;;;5.55;2.33;;;;;;;;;;5056212;28;20048;-77